createdAt,value
2023-12-05T00:02:24.951Z,8.85
2023-12-05T00:04:52.475Z,3.05
2023-12-05T00:07:20.765Z,7.53
2023-12-05T00:09:48.214Z,5.10
2023-12-05T00:12:15.645Z,10.70
2023-12-05T00:14:42.991Z,8.75
2023-12-05T00:17:10.295Z,5.88
2023-12-05T00:19:37.782Z,4.75
2023-12-05T00:22:05.312Z,10.68
2023-12-05T00:24:32.748Z,7.75
2023-12-05T00:27:00.486Z,11.73
2023-12-05T00:29:27.788Z,7.88
2023-12-05T00:31:55.148Z,9.73
2023-12-05T00:34:22.666Z,6.28
2023-12-05T00:36:50.080Z,5.60
2023-12-05T00:39:18.475Z,9.45
2023-12-05T00:41:45.844Z,5.78
2023-12-05T00:44:13.093Z,2.95
2023-12-05T00:46:40.421Z,5.55
2023-12-05T00:49:08.072Z,3.65
2023-12-05T00:51:35.464Z,8.00
2023-12-05T00:54:02.916Z,6.55
2023-12-05T00:56:30.186Z,5.75
2023-12-05T00:58:57.478Z,3.08
2023-12-05T01:01:30.388Z,5.20
2023-12-05T01:03:58.119Z,10.52
2023-12-05T01:06:25.922Z,2.85
2023-12-05T01:08:53.397Z,7.45
2023-12-05T01:11:20.742Z,4.07
2023-12-05T01:13:49.108Z,3.55
2023-12-05T01:16:16.389Z,6.90
2023-12-05T01:18:44.031Z,5.35
2023-12-05T01:21:11.456Z,4.13
2023-12-05T01:23:38.758Z,4.15
2023-12-05T01:26:06.159Z,4.63
2023-12-05T01:28:33.825Z,3.65
2023-12-05T01:31:02.153Z,6.20
2023-12-05T01:33:30.713Z,4.13
2023-12-05T01:35:57.998Z,8.18
2023-12-05T01:38:25.307Z,7.78
2023-12-05T01:40:52.602Z,4.03
2023-12-05T01:43:20.781Z,4.00
2023-12-05T01:45:48.706Z,5.80
2023-12-05T01:48:16.440Z,4.05
2023-12-05T01:50:44.844Z,2.95
2023-12-05T01:53:14.637Z,3.47
2023-12-05T01:55:43.672Z,3.30
2023-12-05T01:58:12.728Z,7.22
2023-12-05T02:00:40.538Z,4.57
2023-12-05T02:03:09.254Z,4.63
2023-12-05T02:05:38.675Z,5.40
2023-12-05T02:08:07.531Z,4.63
2023-12-05T02:10:34.786Z,2.63
2023-12-05T02:13:02.132Z,2.15
2023-12-05T02:15:29.589Z,3.80
2023-12-05T02:18:17.372Z,6.25
2023-12-05T02:21:02.187Z,4.50
2023-12-05T02:23:46.140Z,3.67
2023-12-05T02:26:24.729Z,5.50
2023-12-05T02:28:52.207Z,3.38
2023-12-05T02:31:19.550Z,3.75
2023-12-05T02:33:47.086Z,4.40
2023-12-05T02:36:14.768Z,2.53
2023-12-05T02:38:50.220Z,4.53
2023-12-05T02:41:23.007Z,3.63
2023-12-05T02:43:58.782Z,10.25
2023-12-05T02:46:26.943Z,4.40
2023-12-05T02:48:56.082Z,3.05
2023-12-05T02:51:23.513Z,4.43
2023-12-05T02:53:50.829Z,4.05
2023-12-05T02:56:19.623Z,2.65
2023-12-05T02:58:47.188Z,2.83
2023-12-05T03:01:14.590Z,5.03
2023-12-05T03:03:43.753Z,1.58
2023-12-05T03:06:11.291Z,4.07
2023-12-05T03:08:39.573Z,2.28
2023-12-05T03:11:09.806Z,2.03
2023-12-05T03:13:41.394Z,0.70
2023-12-05T03:16:09.444Z,4.80
2023-12-05T03:18:36.988Z,1.13
2023-12-05T03:21:05.493Z,1.88
2023-12-05T03:23:32.760Z,3.85
2023-12-05T03:26:00.055Z,2.28
2023-12-05T03:28:27.359Z,2.00
2023-12-05T03:30:54.706Z,4.75
2023-12-05T03:33:22.048Z,4.63
2023-12-05T03:35:49.485Z,2.05
2023-12-05T03:38:16.757Z,1.52
2023-12-05T03:40:44.041Z,8.73
2023-12-05T03:43:12.277Z,5.18
2023-12-05T03:45:39.573Z,4.15
2023-12-05T03:48:07.001Z,4.40
2023-12-05T03:50:34.384Z,6.32
2023-12-05T03:53:01.743Z,2.72
2023-12-05T03:55:29.053Z,5.15
2023-12-05T03:57:56.738Z,2.88
2023-12-05T04:00:24.320Z,3.35
2023-12-05T04:02:51.888Z,2.35
2023-12-05T04:05:19.774Z,1.23
2023-12-05T04:07:47.428Z,1.77
2023-12-05T04:10:14.743Z,4.25
2023-12-05T04:12:43.160Z,0.95
2023-12-05T04:15:10.556Z,3.10
2023-12-05T04:17:37.875Z,3.97
2023-12-05T04:20:08.440Z,1.77
2023-12-05T04:22:35.740Z,1.08
2023-12-05T04:25:04.841Z,3.97
2023-12-05T04:27:32.395Z,2.13
2023-12-05T04:30:00.186Z,2.08
2023-12-05T04:32:28.077Z,2.55
2023-12-05T04:34:55.720Z,2.15
2023-12-05T04:37:23.203Z,2.90
2023-12-05T04:39:50.547Z,1.85
2023-12-05T04:42:18.331Z,2.47
2023-12-05T04:44:45.691Z,5.55
2023-12-05T04:47:13.000Z,1.42
2023-12-05T04:49:40.421Z,5.60
2023-12-05T04:52:07.763Z,1.95
2023-12-05T04:54:35.146Z,3.17
2023-12-05T04:57:02.468Z,3.75
2023-12-05T04:59:29.772Z,3.70
2023-12-05T05:01:57.157Z,2.22
2023-12-05T05:04:24.970Z,3.97
2023-12-05T05:06:52.300Z,3.00
2023-12-05T05:09:19.637Z,2.33
2023-12-05T05:11:46.963Z,2.67
2023-12-05T05:14:14.275Z,1.85
2023-12-05T05:16:41.529Z,1.75
2023-12-05T05:19:08.953Z,4.88
2023-12-05T05:21:36.363Z,1.75
2023-12-05T05:24:03.849Z,2.30
2023-12-05T05:26:31.226Z,5.22
2023-12-05T05:28:58.536Z,1.77
2023-12-05T05:31:25.886Z,2.13
2023-12-05T05:33:53.292Z,4.13
2023-12-05T05:36:20.657Z,2.25
2023-12-05T05:38:47.981Z,2.00
2023-12-05T05:41:15.323Z,0.65
2023-12-05T05:43:42.673Z,2.10
2023-12-05T05:46:09.953Z,3.08
2023-12-05T05:48:37.306Z,3.75
2023-12-05T05:51:06.817Z,0.55
2023-12-05T05:53:34.110Z,1.42
2023-12-05T05:56:01.639Z,2.92
2023-12-05T05:58:29.412Z,1.13
2023-12-05T06:00:56.751Z,2.38
2023-12-05T06:03:24.572Z,2.17
2023-12-05T06:05:52.016Z,4.53
2023-12-05T06:08:19.369Z,2.58
2023-12-05T06:10:46.688Z,2.60
2023-12-05T06:13:13.982Z,3.45
2023-12-05T06:15:41.380Z,2.10
2023-12-05T06:18:08.722Z,1.40
2023-12-05T06:20:36.012Z,2.38
2023-12-05T06:23:03.727Z,1.75
2023-12-05T06:25:31.013Z,2.75
2023-12-05T06:27:59.054Z,3.38
2023-12-05T06:30:28.156Z,1.48
2023-12-05T06:32:55.729Z,3.08
2023-12-05T06:35:23.159Z,2.83
2023-12-05T06:37:53.746Z,2.67
2023-12-05T06:40:22.419Z,3.25
2023-12-05T06:42:49.921Z,5.57
2023-12-05T06:45:17.329Z,3.83
2023-12-05T06:47:46.228Z,1.20
2023-12-05T06:50:14.836Z,6.50
2023-12-05T06:52:42.223Z,4.95
2023-12-05T06:55:10.541Z,2.35
2023-12-05T06:57:38.168Z,6.97
2023-12-05T07:00:07.118Z,3.00
2023-12-05T07:02:34.511Z,2.22
2023-12-05T07:05:05.968Z,1.67
2023-12-05T07:07:33.687Z,2.58
2023-12-05T07:10:01.134Z,4.65
2023-12-05T07:12:28.618Z,2.88
2023-12-05T07:14:56.104Z,5.80
2023-12-05T07:17:24.411Z,3.15
2023-12-05T07:19:51.683Z,7.57
2023-12-05T07:22:19.008Z,3.72
2023-12-05T07:24:46.347Z,6.20
2023-12-05T07:27:13.644Z,6.68
2023-12-05T07:29:40.941Z,4.00
2023-12-05T07:32:08.317Z,3.28
2023-12-05T07:34:35.791Z,5.72
2023-12-05T07:37:03.334Z,10.02
2023-12-05T07:39:30.663Z,6.78
2023-12-05T07:41:57.990Z,8.10
2023-12-05T07:44:25.746Z,2.88
2023-12-05T07:46:53.132Z,6.63
2023-12-05T07:49:20.505Z,8.52
2023-12-05T07:51:49.548Z,3.58
2023-12-05T07:54:17.057Z,5.43
2023-12-05T07:56:44.377Z,5.80
2023-12-05T07:59:11.653Z,6.18
2023-12-05T08:01:43.502Z,8.80
2023-12-05T08:04:11.131Z,7.13
2023-12-05T08:06:38.505Z,6.00
2023-12-05T08:09:05.936Z,5.03
2023-12-05T08:11:33.394Z,5.18
2023-12-05T08:14:00.656Z,7.07
2023-12-05T08:16:27.992Z,4.80
2023-12-05T08:18:55.782Z,5.82
2023-12-05T08:21:23.422Z,6.63
2023-12-05T08:23:50.874Z,6.35
2023-12-05T08:26:18.148Z,5.20
2023-12-05T08:28:45.470Z,9.40
2023-12-05T08:31:12.790Z,7.07
2023-12-05T08:33:40.378Z,6.82
2023-12-05T08:36:08.102Z,6.05
2023-12-05T08:38:36.981Z,9.85
2023-12-05T08:41:04.580Z,6.50
2023-12-05T08:43:31.922Z,4.80
2023-12-05T08:46:00.386Z,5.82
2023-12-05T08:48:27.845Z,7.45
2023-12-05T08:50:55.855Z,8.82
2023-12-05T08:53:23.255Z,4.47
2023-12-05T08:55:50.625Z,6.40
2023-12-05T08:58:17.951Z,6.78
2023-12-05T09:00:45.586Z,5.15
2023-12-05T09:03:13.546Z,14.25
2023-12-05T09:05:40.961Z,5.10
2023-12-05T09:08:08.513Z,7.05
2023-12-05T09:10:35.884Z,10.35
2023-12-05T09:13:03.262Z,4.90
2023-12-05T09:15:31.326Z,6.28
2023-12-05T09:17:58.753Z,8.55
2023-12-05T09:20:26.447Z,8.02
2023-12-05T09:22:58.189Z,5.18
2023-12-05T09:25:29.790Z,6.47
2023-12-05T09:27:57.138Z,5.70
2023-12-05T09:30:28.300Z,4.65
2023-12-05T09:32:57.121Z,13.00
2023-12-05T09:35:25.375Z,9.20
2023-12-05T09:37:53.073Z,7.28
2023-12-05T09:40:21.081Z,7.30
2023-12-05T09:42:54.730Z,5.05
2023-12-05T09:45:25.666Z,9.25
2023-12-05T09:47:56.185Z,5.47
2023-12-05T09:50:23.774Z,6.20
2023-12-05T09:52:51.423Z,9.43
2023-12-05T09:55:19.416Z,7.78
2023-12-05T09:57:49.222Z,5.97
2023-12-05T10:00:16.925Z,5.60
2023-12-05T10:02:48.281Z,8.82
2023-12-05T10:05:17.305Z,7.33
2023-12-05T10:07:47.710Z,8.27
2023-12-05T10:10:17.153Z,5.75
2023-12-05T10:12:45.386Z,5.32
2023-12-05T10:15:12.833Z,6.75
2023-12-05T10:17:40.426Z,8.25
2023-12-05T10:20:09.294Z,9.80
2023-12-05T10:22:37.741Z,7.45
2023-12-05T10:25:08.680Z,9.02
2023-12-05T10:27:36.003Z,6.32
2023-12-05T10:30:03.842Z,6.00
2023-12-05T10:32:31.275Z,8.07
2023-12-05T10:34:58.966Z,9.25
2023-12-05T10:37:32.398Z,10.85
2023-12-05T10:42:30.464Z,9.68
2023-12-05T10:44:58.600Z,6.60
2023-12-05T10:47:29.724Z,11.48
2023-12-05T10:49:58.811Z,9.07
2023-12-05T10:52:27.111Z,6.40
2023-12-05T10:54:58.397Z,4.65
2023-12-05T10:57:34.941Z,4.67
2023-12-05T11:00:05.617Z,4.88
2023-12-05T11:02:34.276Z,10.77
2023-12-05T11:05:05.211Z,6.50
2023-12-05T11:07:33.482Z,6.72
2023-12-05T11:10:02.786Z,4.70
2023-12-05T11:12:32.363Z,6.43
2023-12-05T11:15:01.705Z,4.78
2023-12-05T11:17:41.136Z,7.80
2023-12-05T11:20:20.114Z,7.03
2023-12-05T11:23:05.759Z,5.78
2023-12-05T11:25:57.138Z,4.43
2023-12-05T11:28:42.857Z,8.57
2023-12-05T11:31:19.336Z,8.93
2023-12-05T11:34:06.413Z,4.00
2023-12-05T11:36:55.898Z,6.93
2023-12-05T11:39:23.750Z,7.05
2023-12-05T11:42:14.568Z,3.63
2023-12-05T11:44:43.655Z,8.23
2023-12-05T11:47:24.201Z,5.85
2023-12-05T11:49:54.816Z,3.20
2023-12-05T11:52:23.768Z,12.43
2023-12-05T11:54:53.730Z,19.05
2023-12-05T11:57:24.112Z,7.20
2023-12-05T11:59:55.713Z,7.53
2023-12-05T12:02:32.023Z,6.53
2023-12-05T12:05:06.597Z,6.35
2023-12-05T12:07:59.686Z,7.72
2023-12-05T12:10:30.194Z,6.80
2023-12-05T12:12:58.196Z,4.32
2023-12-05T12:15:26.854Z,6.57
2023-12-05T12:17:55.179Z,8.90
2023-12-05T12:20:23.492Z,14.93
2023-12-05T12:22:52.599Z,7.90
2023-12-05T12:25:20.426Z,4.43
2023-12-05T12:27:48.624Z,7.65
2023-12-05T12:30:35.568Z,10.00
2023-12-05T12:33:06.790Z,9.23
2023-12-05T12:35:34.134Z,6.88
2023-12-05T12:38:01.762Z,8.43
2023-12-05T12:40:29.450Z,7.75
2023-12-05T12:42:57.501Z,8.57
2023-12-05T12:45:27.409Z,10.45
2023-12-05T12:47:55.010Z,5.20
2023-12-05T12:50:22.487Z,11.88
2023-12-05T12:52:50.242Z,11.73
2023-12-05T12:55:18.522Z,21.52
2023-12-05T12:57:46.086Z,16.05
2023-12-05T13:00:31.662Z,14.00
2023-12-05T13:03:03.148Z,18.15
2023-12-05T13:05:36.808Z,15.30
2023-12-05T13:08:05.368Z,14.73
2023-12-05T13:10:33.087Z,11.10
2023-12-05T13:13:03.413Z,8.23
2023-12-05T13:15:31.693Z,7.05
2023-12-05T13:18:06.778Z,8.52
2023-12-05T13:20:49.489Z,10.15
2023-12-05T13:23:18.423Z,5.30
2023-12-05T13:25:46.456Z,9.00
2023-12-05T13:28:14.831Z,7.82
2023-12-05T13:30:43.290Z,7.15
2023-12-05T13:33:13.558Z,5.55
2023-12-05T13:35:42.369Z,8.73
2023-12-05T13:38:09.868Z,8.55
2023-12-05T13:40:38.279Z,8.18
2023-12-05T13:43:08.710Z,7.95
2023-12-05T13:45:36.249Z,8.10
2023-12-05T13:48:06.457Z,7.28
2023-12-05T13:50:33.993Z,10.23
2023-12-05T13:53:01.313Z,6.45
2023-12-05T13:55:29.073Z,7.63
2023-12-05T13:57:56.593Z,7.00
2023-12-05T14:00:25.137Z,7.30
2023-12-05T14:02:52.531Z,8.20
2023-12-05T14:05:19.991Z,10.90
2023-12-05T14:07:47.521Z,9.27
2023-12-05T14:10:15.135Z,9.90
2023-12-05T14:12:42.503Z,11.77
2023-12-05T14:15:10.269Z,7.72
2023-12-05T14:17:37.622Z,9.40
2023-12-05T14:20:08.015Z,11.15
2023-12-05T14:22:35.816Z,10.00
2023-12-05T14:25:08.110Z,10.45
2023-12-05T14:27:35.582Z,9.52
2023-12-05T14:30:02.995Z,4.38
2023-12-05T14:32:30.252Z,10.77
2023-12-05T14:34:57.733Z,9.45
2023-12-05T14:37:25.328Z,9.95
2023-12-05T14:39:55.651Z,11.65
2023-12-05T14:42:23.696Z,16.85
2023-12-05T14:44:51.724Z,13.30
2023-12-05T14:47:19.022Z,12.20
2023-12-05T14:49:46.407Z,10.60
2023-12-05T14:52:13.776Z,14.23
2023-12-05T14:54:41.170Z,9.43
2023-12-05T14:57:08.630Z,14.95
2023-12-05T14:59:35.971Z,16.52
2023-12-05T15:02:03.437Z,14.63
2023-12-05T15:04:31.601Z,20.83
2023-12-05T15:06:58.954Z,14.27
2023-12-05T15:09:26.633Z,17.90
2023-12-05T15:11:54.273Z,16.88
2023-12-05T15:14:21.571Z,26.10
2023-12-05T15:16:49.812Z,29.58
2023-12-05T15:19:17.893Z,23.33
2023-12-05T15:21:45.918Z,23.17
2023-12-05T15:24:13.717Z,17.98
2023-12-05T15:26:41.610Z,24.95
2023-12-05T15:29:10.167Z,23.17
2023-12-05T15:31:43.200Z,24.25
2023-12-05T15:34:11.884Z,15.85
2023-12-05T15:36:40.426Z,16.95
2023-12-05T15:39:08.603Z,17.63
2023-12-05T15:41:36.123Z,22.48
2023-12-05T15:44:03.750Z,18.35
2023-12-05T15:46:31.149Z,18.73
2023-12-05T15:48:59.005Z,19.38
2023-12-05T15:51:26.484Z,20.48
2023-12-05T15:53:54.915Z,21.15
2023-12-05T15:56:22.191Z,19.20
2023-12-05T15:58:49.626Z,17.42
2023-12-05T16:01:17.085Z,20.42
2023-12-05T16:03:47.767Z,16.52
2023-12-05T16:06:15.174Z,22.10
2023-12-05T16:08:42.749Z,18.73
2023-12-05T16:11:14.644Z,18.17
2023-12-05T16:13:42.776Z,16.10
2023-12-05T16:16:10.390Z,18.60
2023-12-05T16:18:37.879Z,18.52
2023-12-05T16:21:08.283Z,19.80
2023-12-05T16:23:37.977Z,23.10
2023-12-05T16:26:06.214Z,25.52
2023-12-05T16:28:35.762Z,25.85
2023-12-05T16:31:04.822Z,29.02
2023-12-05T16:33:32.810Z,28.67
2023-12-05T16:36:01.285Z,32.08
2023-12-05T16:38:28.656Z,28.17
2023-12-05T16:40:56.074Z,25.98
2023-12-05T16:43:24.525Z,32.58
2023-12-05T16:45:51.869Z,30.02
2023-12-05T16:48:19.293Z,34.85
2023-12-05T16:50:47.421Z,31.67
2023-12-05T16:53:14.686Z,22.05
2023-12-05T16:55:42.312Z,22.92
2023-12-05T16:58:09.908Z,25.15
2023-12-05T17:00:37.392Z,29.15
2023-12-05T17:03:05.057Z,30.83
2023-12-05T17:05:34.272Z,27.00
2023-12-05T17:08:01.761Z,30.23
2023-12-05T17:10:29.147Z,30.70
2023-12-05T17:12:56.534Z,38.28
2023-12-05T17:15:23.817Z,52.92
2023-12-05T17:17:51.123Z,34.50
2023-12-05T17:20:18.658Z,50.03
2023-12-05T17:22:50.040Z,51.10
2023-12-05T17:25:17.518Z,50.78
2023-12-05T17:27:45.331Z,40.90
2023-12-05T17:30:14.182Z,58.13
2023-12-05T17:32:42.562Z,67.30
2023-12-05T17:35:11.419Z,73.95
2023-12-05T17:37:38.756Z,81.90
2023-12-05T17:40:06.767Z,93.82
2023-12-05T17:42:34.536Z,81.60
2023-12-05T17:45:01.971Z,57.78
2023-12-05T17:47:29.524Z,55.35
2023-12-05T17:49:57.852Z,65.38
2023-12-05T17:52:26.790Z,87.35
2023-12-05T17:54:54.311Z,108.63
2023-12-05T17:57:23.135Z,133.40
2023-12-05T17:59:50.962Z,100.95
2023-12-05T18:02:19.105Z,154.13
2023-12-05T18:04:46.610Z,117.57
2023-12-05T18:07:51.258Z,75.30
2023-12-05T18:10:01.416Z,87.15
2023-12-05T18:12:29.016Z,60.33
2023-12-05T18:14:56.438Z,79.72
2023-12-05T18:17:24.730Z,74.60
2023-12-05T18:19:53.154Z,75.38
2023-12-05T18:22:20.807Z,92.10
2023-12-05T18:24:48.222Z,92.70
2023-12-05T18:27:15.773Z,74.90
2023-12-05T18:29:45.698Z,110.25
2023-12-05T18:32:13.080Z,114.68
2023-12-05T18:34:41.521Z,106.07
2023-12-05T18:37:09.172Z,116.20
2023-12-05T18:39:36.664Z,77.47
2023-12-05T18:42:05.920Z,75.40
2023-12-05T18:44:33.544Z,81.57
2023-12-05T18:47:01.227Z,66.22
2023-12-05T18:49:29.719Z,72.57
2023-12-05T18:51:57.207Z,75.93
2023-12-05T18:54:24.586Z,78.78
2023-12-05T18:56:51.906Z,80.80
2023-12-05T18:59:19.431Z,76.55
2023-12-05T19:01:47.428Z,63.10
2023-12-05T19:04:16.752Z,68.07
2023-12-05T19:06:44.106Z,76.15
2023-12-05T19:09:12.000Z,60.53
2023-12-05T19:11:39.991Z,54.88
2023-12-05T19:14:07.658Z,53.28
2023-12-05T19:16:37.337Z,51.70
2023-12-05T19:19:08.201Z,55.55
2023-12-05T19:21:35.697Z,44.92
2023-12-05T19:24:03.050Z,48.88
2023-12-05T19:26:30.424Z,52.10
2023-12-05T19:28:58.738Z,48.88
2023-12-05T19:31:31.779Z,58.00
2023-12-05T19:33:59.333Z,59.58
2023-12-05T19:36:26.696Z,52.78
2023-12-05T19:38:55.273Z,55.70
2023-12-05T19:41:22.757Z,65.47
2023-12-05T19:43:52.620Z,62.42
2023-12-05T19:46:20.000Z,65.40
2023-12-05T19:48:50.024Z,67.07
2023-12-05T19:51:17.538Z,69.35
2023-12-05T19:53:44.930Z,64.40
2023-12-05T19:56:13.057Z,64.63
2023-12-05T19:58:40.458Z,68.45
2023-12-05T20:01:07.954Z,71.72
2023-12-05T20:03:35.535Z,67.47
2023-12-05T20:06:03.651Z,67.70
2023-12-05T20:08:31.269Z,67.13
2023-12-05T20:10:58.772Z,61.67
2023-12-05T20:13:26.948Z,64.82
2023-12-05T20:15:54.514Z,65.82
2023-12-05T20:18:22.024Z,68.38
2023-12-05T20:20:49.460Z,65.55
2023-12-05T20:23:16.779Z,76.00
2023-12-05T20:25:44.341Z,69.38
2023-12-05T20:28:11.715Z,70.90
2023-12-05T20:30:40.031Z,86.85
2023-12-05T20:33:07.742Z,84.47
2023-12-05T20:35:35.708Z,85.65
2023-12-05T20:38:03.130Z,76.60
2023-12-05T20:40:30.823Z,82.72
2023-12-05T20:42:58.818Z,71.45
2023-12-05T20:45:26.699Z,84.28
2023-12-05T20:47:54.358Z,76.05
2023-12-05T20:50:22.296Z,68.78
2023-12-05T20:52:49.607Z,69.82
2023-12-05T20:55:17.146Z,71.50
2023-12-05T20:57:44.531Z,66.93
2023-12-05T21:00:12.436Z,91.00
2023-12-05T21:02:41.160Z,95.85
2023-12-05T21:05:10.012Z,100.65
2023-12-05T21:07:38.341Z,112.03
2023-12-05T21:10:06.298Z,104.15
2023-12-05T21:12:33.592Z,82.40
2023-12-05T21:15:01.229Z,73.35
2023-12-05T21:17:29.411Z,55.88
2023-12-05T21:19:56.960Z,56.85
2023-12-05T21:22:24.273Z,38.67
2023-12-05T21:24:51.729Z,52.50
2023-12-05T21:27:19.355Z,43.28
2023-12-05T21:29:47.021Z,42.97
2023-12-05T21:32:14.438Z,45.80
2023-12-05T21:34:42.166Z,54.17
2023-12-05T21:37:09.630Z,59.47
2023-12-05T21:39:37.116Z,80.47
2023-12-05T21:42:06.520Z,84.53
2023-12-05T21:44:33.790Z,79.50
2023-12-05T21:47:01.170Z,62.45
2023-12-05T21:49:28.585Z,73.00
2023-12-05T21:51:56.719Z,69.85
2023-12-05T21:54:24.146Z,72.25
2023-12-05T21:56:52.928Z,60.60
2023-12-05T21:59:20.369Z,60.25
2023-12-05T22:01:47.811Z,70.20
2023-12-05T22:04:15.305Z,66.30
2023-12-05T22:06:42.836Z,63.08
2023-12-05T22:09:10.199Z,55.38
2023-12-05T22:11:37.790Z,63.67
2023-12-05T22:14:05.040Z,55.47
2023-12-05T22:16:32.353Z,60.13
2023-12-05T22:18:59.810Z,59.97
2023-12-05T22:21:27.420Z,64.75
2023-12-05T22:23:54.783Z,61.35
2023-12-05T22:26:22.058Z,64.82
2023-12-05T22:28:50.400Z,61.88
2023-12-05T22:31:24.122Z,67.28
2023-12-05T22:33:51.698Z,61.97
2023-12-05T22:36:23.065Z,75.00
2023-12-05T22:38:50.481Z,68.70
2023-12-05T22:41:18.081Z,71.65
2023-12-05T22:43:47.741Z,63.67
2023-12-05T22:46:16.366Z,69.07
2023-12-05T22:48:45.197Z,60.08
2023-12-05T22:51:14.336Z,61.33
2023-12-05T22:56:13.885Z,61.55
2023-12-05T22:58:41.790Z,58.72
2023-12-05T23:01:09.176Z,57.60
2023-12-05T23:03:36.580Z,63.35
2023-12-05T23:06:04.226Z,58.50
2023-12-05T23:08:31.514Z,57.35
2023-12-05T23:10:59.955Z,61.72
2023-12-05T23:13:28.893Z,61.00
2023-12-05T23:15:56.969Z,54.97
2023-12-05T23:18:24.350Z,60.22
2023-12-05T23:20:51.772Z,59.92
2023-12-05T23:23:19.248Z,47.72
2023-12-05T23:25:46.539Z,53.60
2023-12-05T23:28:22.449Z,49.97
2023-12-05T23:30:53.108Z,50.60
2023-12-05T23:33:20.723Z,59.47
2023-12-05T23:35:48.485Z,48.08
2023-12-05T23:38:15.926Z,38.85
2023-12-05T23:40:43.443Z,35.83
2023-12-05T23:43:10.816Z,34.00
2023-12-05T23:45:38.176Z,33.95
2023-12-05T23:48:07.151Z,35.35
2023-12-05T23:50:34.522Z,31.50
2023-12-05T23:53:01.813Z,40.72
2023-12-05T23:55:30.144Z,36.55
2023-12-05T23:57:57.566Z,45.13
